Time;durP1;ratioP1;P1;durP2;ratioP2;P2;SDS_P1;SDS_P2;PMS_P1;PMS_P2;Temp;Humidity;BMP_temperature;BMP_pressure;BME280_temperature;BME280_humidity;BME280_pressure;Samples;Min_cycle;Max_cycle;Signal;HPM_P1;HPM_P2
2021/12/21 00:00:40;;;;;;;5.93;4.30;;;0.70;99.90;;;;;;5040410;28;20215;-50
2021/12/21 00:03:08;;;;;;;5.10;3.42;;;0.70;99.90;;;;;;5040779;28;20238;-48
2021/12/21 00:05:37;;;;;;;3.13;2.92;;;0.70;99.90;;;;;;5040610;28;20207;-48
2021/12/21 00:08:08;;;;;;;3.22;2.92;;;0.70;99.90;;;;;;5040467;28;20227;-50
2021/12/21 00:10:36;;;;;;;6.68;5.03;;;0.70;99.90;;;;;;5040378;28;20208;-53
2021/12/21 00:19:26;;;;;;;5.22;4.07;;;0.70;99.90;;;;;;5007025;28;20537;-51
2021/12/21 00:23:59;;;;;;;4.60;3.80;;;0.60;99.90;;;;;;5040216;28;20197;-48
2021/12/21 00:26:26;;;;;;;6.45;4.32;;;0.50;99.90;;;;;;5040120;28;20247;-52
2021/12/21 00:31:26;;;;;;;9.25;4.55;;;0.50;99.90;;;;;;5043667;28;20196;-50
2021/12/21 00:33:54;;;;;;;5.07;4.10;;;0.50;99.90;;;;;;5043928;28;20200;-52
2021/12/21 00:36:26;;;;;;;4.53;3.40;;;0.50;99.90;;;;;;5044041;28;20200;-47
2021/12/21 00:38:56;;;;;;;6.70;4.20;;;0.40;99.90;;;;;;5044149;28;20216;-51
2021/12/21 00:41:25;;;;;;;6.15;4.00;;;0.50;99.90;;;;;;5044079;28;20243;-47
2021/12/21 00:43:52;;;;;;;7.30;4.43;;;0.40;99.90;;;;;;5043706;28;20200;-48
2021/12/21 00:46:20;;;;;;;10.85;4.75;;;0.40;99.90;;;;;;5043859;28;20200;-52
2021/12/21 00:48:52;;;;;;;5.47;3.42;;;0.30;99.90;;;;;;5043965;28;20258;-50
2021/12/21 00:51:23;;;;;;;5.82;4.30;;;0.30;99.90;;;;;;5048747;28;20204;-55
2021/12/21 00:53:51;;;;;;;8.93;5.50;;;0.30;99.90;;;;;;5048306;28;20499;-52
2021/12/21 00:56:18;;;;;;;9.23;5.82;;;0.40;99.90;;;;;;5047276;28;20193;-54
2021/12/21 00:58:45;;;;;;;10.85;6.00;;;0.40;99.90;;;;;;5043215;28;20224;-47
2021/12/21 01:01:13;;;;;;;13.65;6.68;;;0.30;99.90;;;;;;5043482;28;20566;-48
2021/12/21 01:03:46;;;;;;;9.50;5.28;;;0.30;99.90;;;;;;5043255;28;20242;-49
2021/12/21 01:06:24;;;;;;;10.50;6.03;;;0.30;99.90;;;;;;5043499;28;20268;-54
2021/12/21 01:11:38;;;;;;;7.47;5.88;;;0.20;99.90;;;;;;5043632;28;20490;-51
2021/12/21 01:17:12;;;;;;;9.43;5.70;;;0.10;99.90;;;;;;5043463;28;20215;-50
2021/12/21 01:19:47;;;;;;;13.40;6.20;;;0.20;99.90;;;;;;5043322;28;20216;-50
2021/12/21 01:29:52;;;;;;;9.63;5.72;;;0.10;99.90;;;;;;5043102;28;20516;-47
2021/12/21 01:32:41;;;;;;;7.95;5.93;;;0.20;99.90;;;;;;5043101;28;20514;-51
2021/12/21 01:35:26;;;;;;;9.20;5.40;;;0.10;99.90;;;;;;5042856;28;20230;-54
2021/12/21 01:38:15;;;;;;;14.45;6.47;;;0.20;99.90;;;;;;5042817;28;20234;-51
2021/12/21 01:40:51;;;;;;;12.65;6.60;;;0.10;99.90;;;;;;5042675;28;20203;-47
2021/12/21 01:43:27;;;;;;;5.65;4.75;;;0.10;99.90;;;;;;5042416;28;20274;-52
2021/12/21 01:51:27;;;;;;;9.75;6.28;;;0.20;99.90;;;;;;5042949;28;20204;-49
2021/12/21 01:53:54;;;;;;;6.68;4.97;;;0.20;99.90;;;;;;5042961;28;20450;-48
2021/12/21 01:56:23;;;;;;;10.07;5.90;;;0.20;99.90;;;;;;5042462;28;20290;-52
2021/12/21 01:58:51;;;;;;;4.65;4.25;;;0.20;99.90;;;;;;5042663;28;20279;-48
2021/12/21 02:01:21;;;;;;;10.68;4.90;;;0.10;99.90;;;;;;5042400;28;20336;-49
2021/12/21 02:03:49;;;;;;;5.10;4.03;;;0.10;99.90;;;;;;5042607;28;20204;-46
2021/12/21 02:06:23;;;;;;;6.68;5.20;;;0.10;99.90;;;;;;5044005;28;20506;-50
2021/12/21 02:08:50;;;;;;;9.70;5.95;;;0.10;99.90;;;;;;5043130;28;20220;-50
2021/12/21 02:11:19;;;;;;;6.93;4.88;;;0.10;99.90;;;;;;5043262;28;20204;-51
2021/12/21 02:13:49;;;;;;;5.65;4.97;;;0.10;99.90;;;;;;5043116;28;20262;-50
2021/12/21 02:16:29;;;;;;;6.53;4.28;;;0.10;99.90;;;;;;5041701;28;20248;-50
2021/12/21 02:19:05;;;;;;;7.47;4.85;;;0.10;99.90;;;;;;5042134;28;20216;-50
2021/12/21 02:21:40;;;;;;;8.95;5.30;;;0.10;99.90;;;;;;5042311;28;20529;-51
2021/12/21 02:24:13;;;;;;;6.55;5.63;;;0.10;99.90;;;;;;5041725;28;20503;-51
2021/12/21 02:29:30;;;;;;;7.70;4.57;;;0.10;99.90;;;;;;5041971;28;20262;-50
2021/12/21 02:31:57;;;;;;;8.32;5.03;;;0.10;99.90;;;;;;5042134;28;20203;-51
2021/12/21 02:34:25;;;;;;;6.85;3.72;;;0.10;99.90;;;;;;5041573;28;20201;-47
2021/12/21 02:36:55;;;;;;;5.22;4.72;;;0.20;99.90;;;;;;5041736;28;20196;-46
2021/12/21 02:39:24;;;;;;;4.15;3.75;;;0.10;99.90;;;;;;5041639;28;20216;-48
2021/12/21 02:41:52;;;;;;;6.60;4.63;;;0.10;99.90;;;;;;5041731;28;20196;-50
2021/12/21 02:44:19;;;;;;;9.05;4.57;;;0.20;99.90;;;;;;5041935;28;20196;-46
2021/12/21 02:46:47;;;;;;;4.05;2.88;;;0.10;99.90;;;;;;5041413;28;20196;-51
2021/12/21 02:49:16;;;;;;;7.95;5.07;;;0.20;99.90;;;;;;5041259;28;20224;-52
2021/12/21 02:51:45;;;;;;;6.22;4.20;;;0.20;99.90;;;;;;5041746;28;20465;-47
2021/12/21 02:54:13;;;;;;;7.43;4.53;;;0.20;99.90;;;;;;5041425;28;20536;-47
2021/12/21 02:56:41;;;;;;;4.20;3.38;;;0.20;99.90;;;;;;5041310;28;20235;-48
2021/12/21 02:59:08;;;;;;;5.90;4.88;;;0.20;99.90;;;;;;5041164;28;20224;-49
2021/12/21 03:01:36;;;;;;;7.85;4.10;;;0.30;99.90;;;;;;5023947;28;20200;-50
2021/12/21 03:04:05;;;;;;;6.45;4.13;;;0.20;99.90;;;;;;5041303;28;20197;-52
2021/12/21 03:07:07;;;;;;;5.63;3.65;;;0.30;99.90;;;;;;5041339;28;20200;-47
2021/12/21 03:12:09;;;;;;;5.55;3.88;;;0.20;99.90;;;;;;5040921;28;20208;-50
2021/12/21 03:14:37;;;;;;;9.90;4.78;;;0.20;99.90;;;;;;5041211;28;20262;-48
2021/12/21 03:17:06;;;;;;;8.55;4.45;;;0.30;99.90;;;;;;5040816;28;20196;-49
2021/12/21 03:19:34;;;;;;;6.13;4.10;;;0.20;99.90;;;;;;5040818;28;20217;-46
2021/12/21 03:22:02;;;;;;;9.43;3.95;;;0.30;99.90;;;;;;5040537;28;20215;-50
2021/12/21 03:24:29;;;;;;;4.68;3.50;;;0.30;99.90;;;;;;5040983;28;20242;-50
2021/12/21 03:26:56;;;;;;;11.02;3.85;;;0.30;99.90;;;;;;5040775;28;20196;-47
2021/12/21 03:29:28;;;;;;;3.47;2.90;;;0.30;99.90;;;;;;5040965;28;20216;-48
2021/12/21 03:31:56;;;;;;;6.63;3.70;;;0.30;99.90;;;;;;5040810;28;20207;-47
2021/12/21 03:34:23;;;;;;;4.22;2.70;;;0.40;99.90;;;;;;5040824;28;20196;-48
2021/12/21 03:36:51;;;;;;;4.53;3.15;;;0.40;99.90;;;;;;5040591;28;20251;-47
2021/12/21 03:39:20;;;;;;;7.28;3.38;;;0.40;99.90;;;;;;5040764;28;20266;-51
2021/12/21 03:41:53;;;;;;;7.82;3.75;;;0.40;99.90;;;;;;5040639;28;20208;-49
2021/12/21 03:44:22;;;;;;;3.50;3.20;;;0.40;99.90;;;;;;5040693;28;20196;-50
2021/12/21 03:46:53;;;;;;;6.25;3.80;;;0.40;99.90;;;;;;5040746;28;20208;-53
2021/12/21 03:52:10;;;;;;;5.00;3.63;;;0.40;99.90;;;;;;5040654;28;20200;-47
2021/12/21 03:54:41;;;;;;;4.60;3.47;;;0.50;99.90;;;;;;5041173;28;20200;-51
2021/12/21 03:57:08;;;;;;;7.25;3.15;;;0.40;99.90;;;;;;5040806;28;20196;-54
2021/12/21 03:59:36;;;;;;;8.13;3.60;;;0.50;99.90;;;;;;5040689;28;20270;-52
2021/12/21 04:02:05;;;;;;;5.40;3.10;;;0.40;99.90;;;;;;5040766;28;20422;-55
2021/12/21 04:04:32;;;;;;;7.03;4.25;;;0.50;99.90;;;;;;5040050;28;20266;-50
2021/12/21 04:06:59;;;;;;;7.15;3.75;;;0.60;99.90;;;;;;5040008;28;20227;-49
2021/12/21 04:09:26;;;;;;;4.22;3.60;;;0.70;99.90;;;;;;5039792;28;20546;-52
2021/12/21 04:11:54;;;;;;;6.28;3.58;;;0.70;99.90;;;;;;5040015;28;20196;-49
2021/12/21 04:14:21;;;;;;;6.43;3.50;;;0.60;99.90;;;;;;5040448;28;20258;-52
2021/12/21 04:16:51;;;;;;;4.28;3.55;;;0.50;99.90;;;;;;5039616;28;20600;-47
2021/12/21 04:19:18;;;;;;;9.73;4.63;;;0.40;99.90;;;;;;5039884;28;20539;-48
2021/12/21 04:21:46;;;;;;;6.20;3.92;;;0.50;99.90;;;;;;5040247;28;20234;-47
2021/12/21 04:24:13;;;;;;;6.05;3.05;;;0.50;99.90;;;;;;5039922;28;20199;-49
2021/12/21 04:26:41;;;;;;;7.15;4.85;;;0.50;99.90;;;;;;5039818;28;20250;-50
2021/12/21 04:29:08;;;;;;;4.55;4.13;;;0.70;99.90;;;;;;5039724;28;20228;-50
2021/12/21 04:31:35;;;;;;;12.63;4.38;;;0.80;99.90;;;;;;5040110;28;20459;-50
2021/12/21 04:34:02;;;;;;;8.23;3.75;;;0.80;99.90;;;;;;5039820;28;20199;-54
2021/12/21 04:36:30;;;;;;;6.28;3.50;;;0.70;99.90;;;;;;5039752;28;20255;-53
2021/12/21 04:39:00;;;;;;;7.75;4.35;;;0.80;99.90;;;;;;5039790;28;20235;-55
2021/12/21 04:41:28;;;;;;;5.68;3.10;;;0.80;99.90;;;;;;5039939;28;20234;-52
2021/12/21 04:43:58;;;;;;;5.47;3.53;;;0.90;99.90;;;;;;5039937;28;20208;-51
2021/12/21 04:46:27;;;;;;;2.53;2.33;;;0.90;99.90;;;;;;5039796;28;20201;-46
2021/12/21 04:48:55;;;;;;;7.30;3.65;;;0.70;99.90;;;;;;5039631;28;20224;-49
2021/12/21 04:51:22;;;;;;;4.00;3.38;;;0.80;99.90;;;;;;5039759;28;20577;-50
2021/12/21 04:53:49;;;;;;;3.72;2.80;;;0.90;99.90;;;;;;5039905;28;20200;-48
2021/12/21 04:56:17;;;;;;;5.65;3.33;;;0.80;99.90;;;;;;5039585;28;20220;-47
2021/12/21 04:58:44;;;;;;;4.80;3.20;;;0.90;99.90;;;;;;5040474;28;20557;-53
2021/12/21 05:01:12;;;;;;;4.18;3.78;;;0.80;99.90;;;;;;5039777;28;20211;-48
2021/12/21 05:03:39;;;;;;;6.68;3.60;;;0.60;99.90;;;;;;5040317;28;20200;-48
2021/12/21 05:06:07;;;;;;;5.13;3.38;;;0.60;99.90;;;;;;5039550;28;20494;-50
2021/12/21 05:08:38;;;;;;;11.45;4.05;;;0.60;99.90;;;;;;5039713;28;20220;-53
2021/12/21 05:11:06;;;;;;;10.52;3.42;;;0.70;99.90;;;;;;5022102;28;20204;-50
2021/12/21 05:13:37;;;;;;;6.90;3.05;;;0.70;99.90;;;;;;5040258;28;20228;-48
2021/12/21 05:16:06;;;;;;;2.78;2.20;;;0.70;99.90;;;;;;5038525;28;20270;-48
2021/12/21 05:18:34;;;;;;;3.10;2.20;;;0.60;99.90;;;;;;5042989;28;20216;-52
2021/12/21 05:21:01;;;;;;;3.85;3.25;;;0.80;99.90;;;;;;5042852;28;20240;-52
2021/12/21 05:23:29;;;;;;;6.53;3.92;;;0.80;99.90;;;;;;5042683;28;20243;-46
2021/12/21 05:25:56;;;;;;;7.70;3.90;;;0.80;99.90;;;;;;5042678;28;20208;-47
2021/12/21 05:28:23;;;;;;;4.50;2.88;;;0.70;99.90;;;;;;5042911;28;20254;-48
2021/12/21 05:30:50;;;;;;;5.03;3.92;;;0.70;99.90;;;;;;5042799;28;20246;-48
2021/12/21 05:33:18;;;;;;;7.93;4.05;;;0.70;99.90;;;;;;5025327;28;20201;-48
2021/12/21 05:35:45;;;;;;;12.18;5.60;;;0.70;99.90;;;;;;5042765;28;20282;-52
2021/12/21 05:38:17;;;;;;;6.18;4.53;;;0.70;99.90;;;;;;5042333;28;20254;-47
2021/12/21 05:40:46;;;;;;;5.70;4.22;;;0.70;99.90;;;;;;5042668;28;20196;-47
2021/12/21 05:43:14;;;;;;;3.80;2.88;;;0.80;99.90;;;;;;5042726;28;20198;-48
2021/12/21 05:45:41;;;;;;;6.78;4.30;;;0.80;99.90;;;;;;5042838;28;20238;-48
2021/12/21 05:48:09;;;;;;;5.38;3.90;;;0.70;99.90;;;;;;5042512;28;20243;-47
2021/12/21 05:50:36;;;;;;;6.18;4.18;;;0.80;99.90;;;;;;5043000;28;20595;-50
2021/12/21 05:53:04;;;;;;;9.05;4.30;;;0.80;99.90;;;;;;5042218;28;20208;-50
2021/12/21 05:55:32;;;;;;;5.72;4.68;;;0.70;99.90;;;;;;5042559;28;20254;-48
2021/12/21 05:58:00;;;;;;;5.53;3.67;;;0.70;99.90;;;;;;5041399;28;20255;-47
2021/12/21 06:00:30;;;;;;;6.13;4.90;;;0.80;99.90;;;;;;5041937;28;20276;-47
2021/12/21 06:02:58;;;;;;;7.45;5.97;;;0.70;99.90;;;;;;5042077;28;20265;-50
2021/12/21 06:05:26;;;;;;;8.50;5.88;;;0.80;99.90;;;;;;5042251;28;20223;-51
2021/12/21 06:07:55;;;;;;;8.80;5.95;;;0.80;99.90;;;;;;5041638;28;20208;-48
2021/12/21 06:10:28;;;;;;;6.78;5.93;;;0.90;99.90;;;;;;5041833;28;20200;-50
2021/12/21 06:26:18;;;;;;;7.72;4.70;;;0.80;99.90;;;;;;5041126;28;20541;-47
2021/12/21 06:28:46;;;;;;;6.60;4.25;;;0.70;99.90;;;;;;5041528;28;20392;-49
2021/12/21 06:31:14;;;;;;;6.63;3.80;;;0.80;99.90;;;;;;5024083;28;20270;-47
2021/12/21 06:33:42;;;;;;;8.07;4.50;;;0.80;99.90;;;;;;5041740;28;20200;-50
2021/12/21 06:36:10;;;;;;;6.30;3.80;;;0.90;99.90;;;;;;5041170;28;20249;-48
2021/12/21 06:38:38;;;;;;;8.55;4.25;;;1.00;99.90;;;;;;5041310;28;20224;-48
2021/12/21 06:41:05;;;;;;;5.22;3.20;;;0.90;99.90;;;;;;5041410;28;20196;-49
2021/12/21 06:43:33;;;;;;;4.18;3.30;;;0.90;99.90;;;;;;5041367;28;20242;-47
2021/12/21 06:51:45;;;;;;;5.10;3.70;;;0.90;99.90;;;;;;5041415;28;20200;-49
2021/12/21 06:54:12;;;;;;;4.22;3.20;;;0.70;99.90;;;;;;5041282;28;20540;-48
2021/12/21 06:56:39;;;;;;;7.93;4.05;;;0.80;99.90;;;;;;5040604;28;20224;-51
2021/12/21 06:59:07;;;;;;;3.63;3.10;;;0.60;99.90;;;;;;5041276;28;20232;-48
2021/12/21 07:01:37;;;;;;;4.72;3.22;;;0.60;99.90;;;;;;5040475;28;20200;-48
2021/12/21 07:04:09;;;;;;;3.20;2.03;;;0.40;99.90;;;;;;5041115;28;20200;-50
2021/12/21 07:06:38;;;;;;;4.25;2.90;;;0.30;99.90;;;;;;5040398;28;20201;-49
2021/12/21 07:09:27;;;;;;;2.80;2.28;;;0.40;99.90;;;;;;5040665;28;20259;-47
2021/12/21 07:12:18;;;;;;;4.13;2.60;;;0.30;99.90;;;;;;5040597;28;20200;-49
2021/12/21 07:20:16;;;;;;;1.90;1.75;;;0.10;99.90;;;;;;5040788;28;20200;-50
2021/12/21 07:22:43;;;;;;;1.92;1.65;;;0.00;99.90;;;;;;5040643;28;20234;-48
2021/12/21 07:25:11;;;;;;;3.53;1.88;;;-0.10;99.90;;;;;;5040858;28;20242;-48
2021/12/21 07:27:38;;;;;;;4.00;2.42;;;0.00;99.90;;;;;;5040185;28;20200;-47
2021/12/21 07:30:06;;;;;;;5.18;2.25;;;0.10;99.90;;;;;;5040630;28;20206;-46
2021/12/21 07:32:34;;;;;;;4.38;2.97;;;0.10;99.90;;;;;;5040290;28;20247;-51
2021/12/21 07:35:01;;;;;;;6.07;2.45;;;0.10;99.90;;;;;;5040562;28;20446;-47
2021/12/21 07:37:29;;;;;;;4.50;3.47;;;0.10;99.90;;;;;;5040469;28;20247;-49
2021/12/21 07:39:56;;;;;;;3.88;2.22;;;0.20;99.90;;;;;;5039311;28;20216;-49
2021/12/21 07:42:24;;;;;;;3.50;2.65;;;0.20;99.90;;;;;;5040176;28;20223;-49
2021/12/21 07:44:51;;;;;;;3.75;2.90;;;0.20;99.90;;;;;;5039853;28;20219;-49
2021/12/21 07:47:18;;;;;;;3.60;2.80;;;0.10;99.90;;;;;;5022923;28;20282;-47
2021/12/21 07:49:45;;;;;;;3.55;2.60;;;0.10;99.90;;;;;;5040074;28;20287;-47
2021/12/21 07:52:14;;;;;;;3.05;2.80;;;0.20;99.90;;;;;;5040014;28;20497;-49
2021/12/21 07:54:41;;;;;;;2.33;2.13;;;0.20;99.90;;;;;;5039789;28;20226;-51
2021/12/21 07:57:09;;;;;;;2.17;1.98;;;0.30;99.90;;;;;;5039650;28;20262;-49
2021/12/21 07:59:38;;;;;;;3.33;2.60;;;0.40;99.90;;;;;;5039844;28;20228;-50
2021/12/21 08:02:11;;;;;;;4.70;3.22;;;0.40;99.90;;;;;;5039962;28;20387;-52
2021/12/21 08:04:41;;;;;;;2.42;2.22;;;0.60;99.90;;;;;;5040203;28;20391;-49
2021/12/21 08:07:13;;;;;;;5.30;3.83;;;0.50;99.90;;;;;;5039918;28;20271;-50
2021/12/21 08:09:46;;;;;;;5.65;4.32;;;0.40;99.90;;;;;;5040261;28;20227;-47
2021/12/21 08:12:16;;;;;;;5.25;2.83;;;0.50;99.90;;;;;;5040025;28;20200;-51
2021/12/21 08:14:49;;;;;;;2.67;2.47;;;0.70;99.90;;;;;;5040160;28;20356;-49
2021/12/21 08:17:17;;;;;;;8.45;3.50;;;0.80;99.90;;;;;;5039778;28;20423;-49
2021/12/21 08:19:46;;;;;;;6.00;3.45;;;0.90;99.90;;;;;;5040443;28;20220;-52
2021/12/21 08:22:13;;;;;;;5.13;3.13;;;1.10;99.90;;;;;;5040598;28;20401;-53
2021/12/21 08:24:42;;;;;;;4.45;2.70;;;1.00;99.90;;;;;;5040353;28;20200;-49
2021/12/21 08:27:10;;;;;;;5.63;3.10;;;0.90;99.90;;;;;;5039544;28;20207;-50
2021/12/21 08:29:38;;;;;;;3.42;3.03;;;1.00;99.90;;;;;;5039928;28;20392;-48
2021/12/21 08:32:05;;;;;;;4.88;3.45;;;0.90;99.90;;;;;;5040272;28;20200;-51
2021/12/21 08:34:33;;;;;;;4.80;3.05;;;1.00;99.90;;;;;;5039863;28;20310;-47
2021/12/21 08:37:01;;;;;;;4.93;4.13;;;1.10;99.90;;;;;;5039843;28;20433;-50
2021/12/21 08:39:36;;;;;;;6.97;5.75;;;1.10;99.90;;;;;;5040201;28;20275;-48
2021/12/21 08:42:08;;;;;;;5.20;4.00;;;1.20;99.90;;;;;;5040030;28;20196;-49
2021/12/21 08:44:36;;;;;;;8.25;4.25;;;1.50;99.90;;;;;;5040056;28;20380;-54
2021/12/21 08:47:03;;;;;;;8.40;3.85;;;1.50;99.90;;;;;;5039920;28;20204;-54
2021/12/21 08:49:31;;;;;;;5.85;4.63;;;1.60;99.90;;;;;;5039828;28;20254;-55
2021/12/21 08:51:58;;;;;;;9.10;6.15;;;1.50;99.90;;;;;;5042378;28;20518;-51
2021/12/21 08:54:26;;;;;;;8.15;3.95;;;1.50;99.90;;;;;;5043601;28;20372;-50
2021/12/21 08:56:53;;;;;;;3.53;3.22;;;1.50;99.90;;;;;;5043332;28;20231;-51
2021/12/21 08:59:20;;;;;;;6.13;4.03;;;1.60;99.90;;;;;;5042744;28;20343;-50
2021/12/21 09:01:48;;;;;;;7.28;4.18;;;1.90;99.90;;;;;;5043329;28;20502;-51
2021/12/21 09:04:16;;;;;;;6.28;3.95;;;2.10;99.90;;;;;;5043018;28;20196;-50
2021/12/21 09:06:43;;;;;;;6.65;4.78;;;2.20;99.90;;;;;;5043252;28;20200;-51
2021/12/21 09:09:11;;;;;;;4.35;3.95;;;2.40;99.90;;;;;;5042885;28;20243;-51
2021/12/21 09:11:38;;;;;;;2.90;2.53;;;2.30;99.90;;;;;;5043152;28;20511;-49
2021/12/21 09:14:06;;;;;;;6.45;3.92;;;2.40;99.90;;;;;;5042900;28;20200;-50
2021/12/21 09:16:33;;;;;;;6.60;5.10;;;2.30;99.90;;;;;;5043284;28;20282;-50
2021/12/21 09:19:02;;;;;;;3.72;3.33;;;2.20;99.90;;;;;;5043093;28;20216;-50
2021/12/21 09:21:30;;;;;;;4.13;3.03;;;2.10;99.90;;;;;;5043115;28;20196;-52
2021/12/21 09:23:57;;;;;;;4.07;3.22;;;2.30;99.90;;;;;;5042509;28;20200;-53
2021/12/21 09:26:27;;;;;;;5.75;3.90;;;2.50;99.90;;;;;;5043224;28;20208;-49
2021/12/21 09:28:56;;;;;;;5.30;3.53;;;2.70;99.90;;;;;;5042671;28;20458;-49
2021/12/21 09:31:24;;;;;;;4.78;3.45;;;2.90;99.90;;;;;;5043122;28;20461;-48
2021/12/21 09:33:51;;;;;;;4.78;3.83;;;2.90;99.90;;;;;;5043274;28;20514;-52
2021/12/21 09:36:19;;;;;;;8.43;4.15;;;3.20;99.90;;;;;;5042575;28;20228;-52
2021/12/21 09:38:46;;;;;;;5.03;3.35;;;3.40;99.90;;;;;;5042417;28;20396;-49
2021/12/21 09:41:14;;;;;;;4.90;3.80;;;3.50;99.90;;;;;;5042698;28;20208;-53
2021/12/21 09:43:43;;;;;;;5.60;3.20;;;3.20;99.90;;;;;;5042839;28;20242;-49
2021/12/21 09:46:11;;;;;;;9.27;5.20;;;3.30;99.90;;;;;;5042120;28;20523;-51
2021/12/21 09:48:39;;;;;;;7.80;5.18;;;3.20;99.90;;;;;;5042550;28;20602;-53
2021/12/21 09:51:07;;;;;;;12.50;8.55;;;3.20;99.90;;;;;;5042083;28;20573;-51
2021/12/21 09:53:35;;;;;;;11.50;6.57;;;3.30;99.90;;;;;;5042401;28;20231;-50
2021/12/21 09:56:04;;;;;;;4.80;2.95;;;3.50;99.90;;;;;;5041736;28;20515;-49
2021/12/21 09:58:32;;;;;;;5.00;3.45;;;3.20;99.90;;;;;;5042161;28;20224;-49
2021/12/21 10:01:01;;;;;;;7.20;3.90;;;3.20;99.90;;;;;;5042031;28;20201;-48
2021/12/21 10:03:28;;;;;;;7.40;4.45;;;3.40;99.90;;;;;;5041611;28;20197;-51
2021/12/21 10:06:06;;;;;;;8.90;4.97;;;3.40;99.90;;;;;;5041539;28;20493;-53
2021/12/21 10:08:34;;;;;;;6.13;4.28;;;3.30;99.90;;;;;;5042464;28;20223;-48
2021/12/21 10:11:03;;;;;;;6.32;4.28;;;3.40;99.90;;;;;;5042156;28;20210;-54
2021/12/21 10:13:33;;;;;;;17.67;6.43;;;3.70;99.90;;;;;;5042262;28;20200;-53
2021/12/21 10:16:05;;;;;;;6.78;4.43;;;3.70;99.90;;;;;;5041523;28;20270;-49
2021/12/21 10:18:41;;;;;;;7.00;5.35;;;3.60;99.90;;;;;;5042072;28;20226;-52
2021/12/21 10:21:12;;;;;;;9.93;4.70;;;3.90;99.90;;;;;;5041857;28;20216;-52
2021/12/21 10:23:44;;;;;;;5.85;3.95;;;4.00;99.90;;;;;;5041801;28;20202;-49
2021/12/21 10:26:18;;;;;;;4.97;3.03;;;4.00;99.90;;;;;;5041689;28;20204;-51
2021/12/21 10:28:52;;;;;;;4.85;3.13;;;4.00;99.90;;;;;;5041595;28;20221;-52
2021/12/21 10:31:26;;;;;;;4.53;3.50;;;3.70;99.90;;;;;;5041910;28;20207;-48
2021/12/21 10:33:57;;;;;;;3.55;2.47;;;3.30;99.90;;;;;;5041421;28;20451;-53
2021/12/21 10:36:26;;;;;;;5.38;3.30;;;3.40;99.90;;;;;;5041745;28;20201;-53
2021/12/21 10:38:57;;;;;;;7.78;2.97;;;3.70;99.90;;;;;;5041308;28;20244;-50
2021/12/21 10:41:37;;;;;;;9.27;4.70;;;3.80;99.90;;;;;;5042029;28;20197;-50
2021/12/21 10:44:09;;;;;;;4.38;2.45;;;3.80;99.90;;;;;;5041874;28;20202;-49
2021/12/21 10:46:42;;;;;;;6.03;3.47;;;3.80;99.90;;;;;;5041816;28;20504;-53
2021/12/21 10:49:31;;;;;;;6.57;3.80;;;3.60;99.90;;;;;;5042012;28;20213;-50
2021/12/21 10:52:07;;;;;;;7.47;5.32;;;3.70;99.90;;;;;;5041953;28;20590;-50
2021/12/21 10:54:55;;;;;;;9.27;6.32;;;3.60;99.90;;;;;;5041224;28;20435;-50
2021/12/21 10:57:32;;;;;;;10.80;5.22;;;3.50;99.90;;;;;;5041281;28;20216;-50
2021/12/21 11:00:07;;;;;;;9.05;6.03;;;3.50;99.90;;;;;;5062141;22;20248;-55
2021/12/21 11:02:35;;;;;;;14.73;6.55;;;3.40;99.90;;;;;;5041121;28;20212;-51
2021/12/21 11:05:09;;;;;;;25.05;9.07;;;3.40;99.90;;;;;;5041207;28;20198;-54
2021/12/21 11:07:59;;;;;;;9.77;6.72;;;3.50;99.90;;;;;;5041241;28;20204;-56
2021/12/21 11:10:32;;;;;;;14.40;5.97;;;3.50;99.90;;;;;;5040439;28;20272;-53
2021/12/21 11:13:11;;;;;;;14.55;5.15;;;3.60;99.90;;;;;;5040928;28;20208;-52
2021/12/21 11:15:48;;;;;;;11.68;3.70;;;3.60;99.90;;;;;;5040168;28;20228;-51
2021/12/21 11:18:16;;;;;;;5.65;3.13;;;3.50;99.90;;;;;;5040908;28;20275;-51
2021/12/21 11:20:48;;;;;;;4.65;2.85;;;3.50;99.90;;;;;;5040494;28;20297;-51
2021/12/21 11:23:19;;;;;;;6.03;3.33;;;3.50;99.90;;;;;;5041944;28;20350;-51
2021/12/21 11:25:49;;;;;;;6.95;3.90;;;3.60;99.90;;;;;;5041822;28;20464;-51
2021/12/21 11:28:20;;;;;;;4.20;2.92;;;3.50;99.90;;;;;;5040501;28;20200;-52
2021/12/21 11:30:48;;;;;;;6.05;3.45;;;3.60;99.90;;;;;;5040024;28;20204;-52
2021/12/21 11:33:18;;;;;;;5.40;2.67;;;3.50;99.90;;;;;;5040564;28;20205;-56
2021/12/21 11:38:32;;;;;;;11.60;4.28;;;3.50;99.90;;;;;;5040445;28;20271;-57
2021/12/21 11:41:00;;;;;;;13.65;3.30;;;3.50;99.90;;;;;;5039652;28;20434;-50
2021/12/21 11:43:36;;;;;;;7.55;3.13;;;3.20;99.90;;;;;;5040098;28;20197;-49
2021/12/21 11:46:13;;;;;;;4.93;2.33;;;3.20;99.90;;;;;;5039932;28;20202;-55
2021/12/21 11:49:15;;;;;;;2.63;2.42;;;3.20;99.90;;;;;;5040520;28;20491;-51
2021/12/21 11:51:42;;;;;;;4.20;3.55;;;3.30;99.90;;;;;;5039731;28;20210;-55
2021/12/21 11:54:18;;;;;;;9.05;3.95;;;3.60;99.90;;;;;;5041486;28;20200;-52
2021/12/21 11:56:46;;;;;;;5.40;3.20;;;3.50;99.90;;;;;;5039830;28;20201;-53
2021/12/21 11:59:21;;;;;;;7.32;2.85;;;3.50;99.90;;;;;;5040011;28;20280;-50
2021/12/21 12:01:49;;;;;;;6.15;4.18;;;3.50;99.90;;;;;;5040054;28;20196;-50
2021/12/21 12:04:16;;;;;;;7.13;4.00;;;3.40;99.90;;;;;;5039907;28;20231;-51
2021/12/21 12:06:48;;;;;;;7.70;4.50;;;3.50;99.90;;;;;;5039777;28;20237;-52
2021/12/21 12:09:41;;;;;;;13.40;4.10;;;3.50;99.90;;;;;;5040458;28;20434;-55
2021/12/21 12:12:15;;;;;;;5.88;3.28;;;3.50;99.90;;;;;;5037639;28;20196;-53
2021/12/21 12:14:46;;;;;;;7.18;2.65;;;3.40;99.90;;;;;;5040335;28;20209;-55
2021/12/21 12:17:15;;;;;;;5.53;3.13;;;3.60;99.90;;;;;;5039877;28;20264;-51
2021/12/21 12:20:00;;;;;;;9.05;4.05;;;3.40;99.90;;;;;;5040898;28;20256;-53
2021/12/21 12:22:37;;;;;;;6.30;3.47;;;3.20;99.90;;;;;;5040667;28;20204;-54
2021/12/21 12:25:19;;;;;;;3.47;2.92;;;3.10;99.90;;;;;;5041442;28;20244;-56
2021/12/21 12:27:52;;;;;;;4.47;3.70;;;3.20;99.90;;;;;;5044797;28;20215;-52
2021/12/21 12:30:25;;;;;;;9.52;4.18;;;3.10;99.90;;;;;;5044719;28;20221;-55
2021/12/21 12:32:55;;;;;;;9.43;5.20;;;3.30;99.90;;;;;;5044755;28;20557;-55
2021/12/21 12:35:28;;;;;;;8.93;5.90;;;3.20;99.90;;;;;;5045223;28;20200;-54
2021/12/21 12:38:02;;;;;;;10.35;5.68;;;3.10;99.90;;;;;;5045526;28;20268;-53
2021/12/21 12:40:58;;;;;;;7.80;5.15;;;2.90;99.90;;;;;;5044829;28;20255;-53
2021/12/21 12:43:29;;;;;;;4.63;4.10;;;2.80;99.90;;;;;;5046432;28;20219;-54
2021/12/21 12:46:03;;;;;;;3.50;2.42;;;2.60;99.90;;;;;;5045210;28;20264;-50
2021/12/21 12:48:33;;;;;;;5.05;4.20;;;2.60;99.90;;;;;;5043681;28;20275;-51
2021/12/21 12:51:04;;;;;;;7.20;3.95;;;2.70;99.90;;;;;;5043567;28;20247;-53
2021/12/21 12:53:40;;;;;;;9.25;2.60;;;2.80;99.90;;;;;;5043959;28;20209;-55
2021/12/21 12:56:10;;;;;;;4.43;2.38;;;2.80;99.90;;;;;;5043904;28;20589;-52
2021/12/21 12:59:00;;;;;;;7.65;3.45;;;2.80;99.90;;;;;;5043560;28;20255;-52
2021/12/21 13:01:32;;;;;;;5.20;3.40;;;2.60;99.90;;;;;;5043731;28;20200;-54
2021/12/21 13:04:08;;;;;;;5.50;2.83;;;2.50;99.90;;;;;;5047270;28;20197;-53
2021/12/21 13:06:38;;;;;;;3.85;3.00;;;2.30;99.90;;;;;;5045518;28;20235;-53
2021/12/21 13:09:12;;;;;;;8.25;2.78;;;2.30;99.90;;;;;;5043648;28;20286;-51
2021/12/21 13:11:40;;;;;;;4.10;2.05;;;2.20;99.90;;;;;;5043754;28;20200;-51
2021/12/21 13:14:11;;;;;;;3.63;3.10;;;2.20;99.90;;;;;;5043727;28;20200;-51
2021/12/21 13:16:39;;;;;;;6.80;2.13;;;2.30;99.90;;;;;;5043320;28;20564;-53
2021/12/21 13:19:11;;;;;;;4.72;1.80;;;2.30;99.90;;;;;;5044203;28;20552;-51
2021/12/21 13:21:45;;;;;;;3.30;1.42;;;2.50;99.90;;;;;;5043633;28;20234;-52
2021/12/21 13:24:19;;;;;;;1.73;1.63;;;2.30;99.90;;;;;;5043493;28;20250;-52
2021/12/21 13:26:52;;;;;;;2.10;2.00;;;2.20;99.90;;;;;;5043360;28;20196;-55
2021/12/21 13:29:31;;;;;;;5.07;1.95;;;2.20;99.90;;;;;;5043910;28;20213;-53
2021/12/21 13:32:01;;;;;;;1.50;1.40;;;2.10;99.90;;;;;;5042996;28;20246;-50
2021/12/21 13:34:28;;;;;;;5.53;2.40;;;1.70;99.90;;;;;;5044336;28;20258;-53
2021/12/21 13:37:02;;;;;;;6.35;2.63;;;1.50;99.90;;;;;;5042780;28;20246;-52
2021/12/21 13:39:34;;;;;;;7.25;2.17;;;1.80;99.90;;;;;;5043951;28;20226;-56
2021/12/21 13:42:03;;;;;;;2.50;2.28;;;2.10;99.90;;;;;;5045988;28;20250;-57
2021/12/21 13:44:43;;;;;;;4.22;3.15;;;2.20;99.90;;;;;;5046291;28;20215;-53
2021/12/21 13:47:26;;;;;;;5.00;4.57;;;1.90;99.90;;;;;;5045976;28;20208;-55
2021/12/21 13:49:56;;;;;;;8.60;2.80;;;1.90;99.90;;;;;;5044311;28;20216;-52
2021/12/21 13:52:28;;;;;;;4.82;2.45;;;1.90;99.90;;;;;;5042781;28;20205;-53
2021/12/21 13:54:55;;;;;;;3.67;3.38;;;2.10;99.90;;;;;;5042741;28;20219;-53
2021/12/21 13:57:25;;;;;;;14.20;3.25;;;1.90;99.90;;;;;;5042271;28;20228;-53
2021/12/21 13:59:54;;;;;;;3.22;2.67;;;1.90;99.90;;;;;;5042913;28;20232;-52
2021/12/21 14:02:34;;;;;;;3.75;2.83;;;1.90;99.90;;;;;;5042968;28;20207;-55
2021/12/21 14:05:06;;;;;;;2.53;2.30;;;1.90;99.90;;;;;;5043443;28;20202;-56
2021/12/21 14:07:38;;;;;;;5.25;3.70;;;2.00;99.90;;;;;;5043722;28;20200;-55
2021/12/21 14:10:11;;;;;;;4.78;3.10;;;2.10;99.90;;;;;;5043662;28;20430;-55
2021/12/21 14:12:41;;;;;;;4.32;2.80;;;1.90;99.90;;;;;;5042859;28;20204;-51
2021/12/21 14:15:09;;;;;;;15.07;3.85;;;1.70;99.90;;;;;;5042886;28;20200;-53
2021/12/21 14:17:37;;;;;;;4.72;3.17;;;1.80;99.90;;;;;;5042553;28;20224;-50